sensor_id;sensor_type;location;lat;lon;timestamp;temperature;humidity
75368;DHT22;63954;51.948;5.888;2022-10-17T00:00:18;14.36;81.44
75368;DHT22;63954;51.948;5.888;2022-10-17T00:02:46;14.36;81.40
75368;DHT22;63954;51.948;5.888;2022-10-17T00:05:13;14.39;81.30
75368;DHT22;63954;51.948;5.888;2022-10-17T00:07:40;14.37;81.42
75368;DHT22;63954;51.948;5.888;2022-10-17T00:10:07;14.37;81.59
75368;DHT22;63954;51.948;5.888;2022-10-17T00:12:35;14.36;81.75
75368;DHT22;63954;51.948;5.888;2022-10-17T00:15:05;14.36;81.75
75368;DHT22;63954;51.948;5.888;2022-10-17T00:17:33;14.34;81.65
75368;DHT22;63954;51.948;5.888;2022-10-17T00:20:01;14.34;81.68
75368;DHT22;63954;51.948;5.888;2022-10-17T00:22:28;14.33;81.84
75368;DHT22;63954;51.948;5.888;2022-10-17T00:24:55;14.33;81.63
75368;DHT22;63954;51.948;5.888;2022-10-17T00:27:22;14.32;81.50
75368;DHT22;63954;51.948;5.888;2022-10-17T00:29:52;14.30;81.53
75368;DHT22;63954;51.948;5.888;2022-10-17T00:32:21;14.32;81.68
75368;DHT22;63954;51.948;5.888;2022-10-17T00:34:48;14.32;81.62
75368;DHT22;63954;51.948;5.888;2022-10-17T00:37:17;14.28;81.57
75368;DHT22;63954;51.948;5.888;2022-10-17T00:39:44;14.27;81.27
75368;DHT22;63954;51.948;5.888;2022-10-17T00:42:12;14.26;81.28
75368;DHT22;63954;51.948;5.888;2022-10-17T00:47:45;14.26;81.55
75368;DHT22;63954;51.948;5.888;2022-10-17T00:50:14;14.26;81.40
75368;DHT22;63954;51.948;5.888;2022-10-17T00:52:43;14.25;81.54
75368;DHT22;63954;51.948;5.888;2022-10-17T00:55:13;14.25;81.73
75368;DHT22;63954;51.948;5.888;2022-10-17T00:57:43;14.25;81.75
75368;DHT22;63954;51.948;5.888;2022-10-17T01:00:12;14.24;81.76
75368;DHT22;63954;51.948;5.888;2022-10-17T01:02:40;14.24;81.63
75368;DHT22;63954;51.948;5.888;2022-10-17T01:05:10;14.25;81.55
75368;DHT22;63954;51.948;5.888;2022-10-17T01:07:39;14.25;81.29
75368;DHT22;63954;51.948;5.888;2022-10-17T01:10:08;14.25;81.07
75368;DHT22;63954;51.948;5.888;2022-10-17T01:12:43;14.25;80.88
75368;DHT22;63954;51.948;5.888;2022-10-17T01:15:19;14.24;80.74
75368;DHT22;63954;51.948;5.888;2022-10-17T01:17:56;14.25;80.66
75368;DHT22;63954;51.948;5.888;2022-10-17T01:23:53;14.27;81.43
75368;DHT22;63954;51.948;5.888;2022-10-17T01:26:36;14.28;81.62
75368;DHT22;63954;51.948;5.888;2022-10-17T01:29:32;14.30;81.71
75368;DHT22;63954;51.948;5.888;2022-10-17T01:32:04;14.32;81.45
75368;DHT22;63954;51.948;5.888;2022-10-17T01:34:40;14.32;81.05
75368;DHT22;63954;51.948;5.888;2022-10-17T01:37:15;14.30;81.10
75368;DHT22;63954;51.948;5.888;2022-10-17T01:39:47;14.26;81.11
75368;DHT22;63954;51.948;5.888;2022-10-17T01:42:20;14.26;81.02
75368;DHT22;63954;51.948;5.888;2022-10-17T01:44:52;14.25;81.31
75368;DHT22;63954;51.948;5.888;2022-10-17T01:47:25;14.23;81.20
75368;DHT22;63954;51.948;5.888;2022-10-17T01:49:56;14.24;81.46
75368;DHT22;63954;51.948;5.888;2022-10-17T01:52:27;14.24;81.39
75368;DHT22;63954;51.948;5.888;2022-10-17T01:54:57;14.24;81.26
75368;DHT22;63954;51.948;5.888;2022-10-17T01:57:31;14.22;81.17
75368;DHT22;63954;51.948;5.888;2022-10-17T02:00:02;14.22;81.47
75368;DHT22;63954;51.948;5.888;2022-10-17T02:02:42;14.24;81.27
75368;DHT22;63954;51.948;5.888;2022-10-17T02:05:11;14.24;81.04
75368;DHT22;63954;51.948;5.888;2022-10-17T02:07:40;14.25;81.26
75368;DHT22;63954;51.948;5.888;2022-10-17T02:10:12;14.24;81.20
75368;DHT22;63954;51.948;5.888;2022-10-17T02:12:49;14.25;81.20
75368;DHT22;63954;51.948;5.888;2022-10-17T02:15:35;14.24;81.19
75368;DHT22;63954;51.948;5.888;2022-10-17T02:18:16;14.24;81.20
75368;DHT22;63954;51.948;5.888;2022-10-17T02:20:51;14.24;81.24
75368;DHT22;63954;51.948;5.888;2022-10-17T02:23:24;14.25;81.50
75368;DHT22;63954;51.948;5.888;2022-10-17T02:25:58;14.24;81.49
75368;DHT22;63954;51.948;5.888;2022-10-17T02:28:31;14.25;81.76
75368;DHT22;63954;51.948;5.888;2022-10-17T02:31:06;14.25;81.58
75368;DHT22;63954;51.948;5.888;2022-10-17T02:33:38;14.28;81.93
75368;DHT22;63954;51.948;5.888;2022-10-17T02:36:10;14.28;82.26
75368;DHT22;63954;51.948;5.888;2022-10-17T02:38:41;14.28;82.13
75368;DHT22;63954;51.948;5.888;2022-10-17T02:41:15;14.26;82.01
75368;DHT22;63954;51.948;5.888;2022-10-17T02:43:44;14.24;82.04
75368;DHT22;63954;51.948;5.888;2022-10-17T02:46:15;14.22;82.23
75368;DHT22;63954;51.948;5.888;2022-10-17T02:48:50;14.20;82.41
75368;DHT22;63954;51.948;5.888;2022-10-17T02:51:23;14.18;82.29
75368;DHT22;63954;51.948;5.888;2022-10-17T02:54:00;14.19;83.27
75368;DHT22;63954;51.948;5.888;2022-10-17T02:56:38;14.19;82.94
75368;DHT22;63954;51.948;5.888;2022-10-17T02:59:08;14.21;82.73
75368;DHT22;63954;51.948;5.888;2022-10-17T03:01:37;14.22;82.74
75368;DHT22;63954;51.948;5.888;2022-10-17T03:04:08;14.20;82.56
75368;DHT22;63954;51.948;5.888;2022-10-17T03:06:36;14.21;82.73
75368;DHT22;63954;51.948;5.888;2022-10-17T03:09:03;14.20;82.68
75368;DHT22;63954;51.948;5.888;2022-10-17T03:11:31;14.21;82.65
75368;DHT22;63954;51.948;5.888;2022-10-17T03:13:58;14.20;82.75
75368;DHT22;63954;51.948;5.888;2022-10-17T03:16:26;14.20;82.66
75368;DHT22;63954;51.948;5.888;2022-10-17T03:18:53;14.20;82.60
75368;DHT22;63954;51.948;5.888;2022-10-17T03:21:23;14.22;82.67
75368;DHT22;63954;51.948;5.888;2022-10-17T03:23:51;14.23;82.60
75368;DHT22;63954;51.948;5.888;2022-10-17T03:26:20;14.24;82.58
75368;DHT22;63954;51.948;5.888;2022-10-17T03:28:48;14.26;82.38
75368;DHT22;63954;51.948;5.888;2022-10-17T03:31:16;14.25;82.34
75368;DHT22;63954;51.948;5.888;2022-10-17T03:33:45;14.25;82.36
75368;DHT22;63954;51.948;5.888;2022-10-17T03:36:15;14.23;82.58
75368;DHT22;63954;51.948;5.888;2022-10-17T03:38:45;14.20;82.47
75368;DHT22;63954;51.948;5.888;2022-10-17T03:41:13;14.20;82.34
75368;DHT22;63954;51.948;5.888;2022-10-17T03:43:41;14.20;82.43
75368;DHT22;63954;51.948;5.888;2022-10-17T03:46:08;14.19;82.46
75368;DHT22;63954;51.948;5.888;2022-10-17T03:48:36;14.21;82.44
75368;DHT22;63954;51.948;5.888;2022-10-17T03:51:08;14.22;82.51
75368;DHT22;63954;51.948;5.888;2022-10-17T03:53:45;14.21;82.58
75368;DHT22;63954;51.948;5.888;2022-10-17T03:56:14;14.23;83.10
75368;DHT22;63954;51.948;5.888;2022-10-17T03:58:44;14.26;82.91
75368;DHT22;63954;51.948;5.888;2022-10-17T04:01:14;14.27;82.81
75368;DHT22;63954;51.948;5.888;2022-10-17T04:03:47;14.27;82.58
75368;DHT22;63954;51.948;5.888;2022-10-17T04:06:15;14.26;82.62
75368;DHT22;63954;51.948;5.888;2022-10-17T04:08:45;14.25;82.61
75368;DHT22;63954;51.948;5.888;2022-10-17T04:11:18;14.24;82.58
75368;DHT22;63954;51.948;5.888;2022-10-17T04:13:47;14.23;82.58
75368;DHT22;63954;51.948;5.888;2022-10-17T04:16:18;14.23;82.62
75368;DHT22;63954;51.948;5.888;2022-10-17T04:18:53;14.21;82.58
75368;DHT22;63954;51.948;5.888;2022-10-17T04:21:23;14.20;82.81
75368;DHT22;63954;51.948;5.888;2022-10-17T04:23:59;14.24;82.83
75368;DHT22;63954;51.948;5.888;2022-10-17T04:26:55;14.26;82.71
75368;DHT22;63954;51.948;5.888;2022-10-17T04:29:27;14.32;82.70
75368;DHT22;63954;51.948;5.888;2022-10-17T04:32:03;14.36;82.87
75368;DHT22;63954;51.948;5.888;2022-10-17T04:34:38;14.40;83.03
75368;DHT22;63954;51.948;5.888;2022-10-17T04:37:06;14.43;83.02
75368;DHT22;63954;51.948;5.888;2022-10-17T04:39:35;14.42;83.07
75368;DHT22;63954;51.948;5.888;2022-10-17T04:42:02;14.42;83.16
75368;DHT22;63954;51.948;5.888;2022-10-17T04:44:29;14.44;82.69
75368;DHT22;63954;51.948;5.888;2022-10-17T04:46:58;14.48;82.68
75368;DHT22;63954;51.948;5.888;2022-10-17T04:49:26;14.50;82.75
75368;DHT22;63954;51.948;5.888;2022-10-17T04:51:58;14.54;82.78
75368;DHT22;63954;51.948;5.888;2022-10-17T04:54:37;14.58;82.80
75368;DHT22;63954;51.948;5.888;2022-10-17T04:57:08;14.59;82.71
75368;DHT22;63954;51.948;5.888;2022-10-17T04:59:35;14.59;82.70
75368;DHT22;63954;51.948;5.888;2022-10-17T05:02:14;14.59;82.53
75368;DHT22;63954;51.948;5.888;2022-10-17T05:04:41;14.56;82.47
75368;DHT22;63954;51.948;5.888;2022-10-17T05:07:10;14.52;82.59
75368;DHT22;63954;51.948;5.888;2022-10-17T05:10:01;14.50;82.61
75368;DHT22;63954;51.948;5.888;2022-10-17T05:12:34;14.49;82.71
75368;DHT22;63954;51.948;5.888;2022-10-17T05:15:05;14.49;82.69
75368;DHT22;63954;51.948;5.888;2022-10-17T05:17:36;14.45;82.70
75368;DHT22;63954;51.948;5.888;2022-10-17T05:20:05;14.42;82.55
75368;DHT22;63954;51.948;5.888;2022-10-17T05:22:35;14.36;82.40
75368;DHT22;63954;51.948;5.888;2022-10-17T05:25:06;14.30;82.40
75368;DHT22;63954;51.948;5.888;2022-10-17T05:27:35;14.26;82.62
75368;DHT22;63954;51.948;5.888;2022-10-17T05:30:04;14.24;82.69
75368;DHT22;63954;51.948;5.888;2022-10-17T05:32:37;14.20;82.84
75368;DHT22;63954;51.948;5.888;2022-10-17T05:35:05;14.19;82.91
75368;DHT22;63954;51.948;5.888;2022-10-17T05:37:33;14.20;82.91
75368;DHT22;63954;51.948;5.888;2022-10-17T05:40:06;14.20;82.79
75368;DHT22;63954;51.948;5.888;2022-10-17T05:45:24;14.28;82.78
75368;DHT22;63954;51.948;5.888;2022-10-17T05:47:51;14.33;82.84
75368;DHT22;63954;51.948;5.888;2022-10-17T05:50:19;14.36;82.97
75368;DHT22;63954;51.948;5.888;2022-10-17T05:53:01;14.38;82.93
75368;DHT22;63954;51.948;5.888;2022-10-17T05:55:30;14.42;82.97
75368;DHT22;63954;51.948;5.888;2022-10-17T05:57:58;14.43;83.07
75368;DHT22;63954;51.948;5.888;2022-10-17T06:00:30;14.45;83.12
75368;DHT22;63954;51.948;5.888;2022-10-17T06:02:58;14.50;83.09
75368;DHT22;63954;51.948;5.888;2022-10-17T06:05:25;14.53;83.20
75368;DHT22;63954;51.948;5.888;2022-10-17T06:07:53;14.56;83.16
75368;DHT22;63954;51.948;5.888;2022-10-17T06:10:22;14.60;83.10
75368;DHT22;63954;51.948;5.888;2022-10-17T06:12:51;14.68;83.50
75368;DHT22;63954;51.948;5.888;2022-10-17T06:15:25;14.74;83.26
75368;DHT22;63954;51.948;5.888;2022-10-17T06:18:05;14.81;83.07
75368;DHT22;63954;51.948;5.888;2022-10-17T06:20:35;14.84;83.02
75368;DHT22;63954;51.948;5.888;2022-10-17T06:23:03;14.86;82.90
75368;DHT22;63954;51.948;5.888;2022-10-17T06:25:57;14.89;83.34
75368;DHT22;63954;51.948;5.888;2022-10-17T06:28:26;14.94;83.41
75368;DHT22;63954;51.948;5.888;2022-10-17T06:31:03;14.99;83.16
75368;DHT22;63954;51.948;5.888;2022-10-17T06:33:35;15.04;83.13
75368;DHT22;63954;51.948;5.888;2022-10-17T06:36:06;15.09;83.00
75368;DHT22;63954;51.948;5.888;2022-10-17T06:38:35;15.14;83.07
75368;DHT22;63954;51.948;5.888;2022-10-17T06:41:09;15.21;83.01
75368;DHT22;63954;51.948;5.888;2022-10-17T06:43:42;15.27;82.95
75368;DHT22;63954;51.948;5.888;2022-10-17T06:46:36;15.31;82.93
75368;DHT22;63954;51.948;5.888;2022-10-17T06:49:05;15.34;82.81
75368;DHT22;63954;51.948;5.888;2022-10-17T06:51:42;15.44;83.27
75368;DHT22;63954;51.948;5.888;2022-10-17T06:54:12;15.49;82.98
75368;DHT22;63954;51.948;5.888;2022-10-17T06:56:48;15.58;83.00
75368;DHT22;63954;51.948;5.888;2022-10-17T06:59:36;15.67;82.92
75368;DHT22;63954;51.948;5.888;2022-10-17T07:02:23;15.75;82.95
75368;DHT22;63954;51.948;5.888;2022-10-17T07:04:56;15.83;82.78
75368;DHT22;63954;51.948;5.888;2022-10-17T07:07:23;15.89;82.79
75368;DHT22;63954;51.948;5.888;2022-10-17T07:09:52;15.97;82.81
75368;DHT22;63954;51.948;5.888;2022-10-17T07:12:20;16.05;82.58
75368;DHT22;63954;51.948;5.888;2022-10-17T07:14:50;16.15;82.19
75368;DHT22;63954;51.948;5.888;2022-10-17T07:17:20;16.24;82.06
75368;DHT22;63954;51.948;5.888;2022-10-17T07:19:48;16.31;81.85
75368;DHT22;63954;51.948;5.888;2022-10-17T07:22:19;16.37;81.69
75368;DHT22;63954;51.948;5.888;2022-10-17T07:24:55;16.42;81.64
75368;DHT22;63954;51.948;5.888;2022-10-17T07:27:28;16.50;81.54
75368;DHT22;63954;51.948;5.888;2022-10-17T07:29:57;16.62;81.58
75368;DHT22;63954;51.948;5.888;2022-10-17T07:32:37;16.75;81.24
75368;DHT22;63954;51.948;5.888;2022-10-17T07:35:05;16.87;80.92
75368;DHT22;63954;51.948;5.888;2022-10-17T07:37:35;17.02;80.77
75368;DHT22;63954;51.948;5.888;2022-10-17T07:40:02;17.17;80.55
75368;DHT22;63954;51.948;5.888;2022-10-17T07:42:31;17.29;80.17
75368;DHT22;63954;51.948;5.888;2022-10-17T07:45:00;17.36;79.75
75368;DHT22;63954;51.948;5.888;2022-10-17T07:47:30;17.39;79.62
75368;DHT22;63954;51.948;5.888;2022-10-17T07:50:00;17.41;79.52
75368;DHT22;63954;51.948;5.888;2022-10-17T07:52:28;17.43;79.27
75368;DHT22;63954;51.948;5.888;2022-10-17T07:55:12;17.40;79.27
75368;DHT22;63954;51.948;5.888;2022-10-17T07:57:40;17.35;79.46
75368;DHT22;63954;51.948;5.888;2022-10-17T08:00:10;17.31;79.45
75368;DHT22;63954;51.948;5.888;2022-10-17T08:02:40;17.28;79.65
75368;DHT22;63954;51.948;5.888;2022-10-17T08:05:08;17.23;79.97
75368;DHT22;63954;51.948;5.888;2022-10-17T08:07:44;17.20;80.03
75368;DHT22;63954;51.948;5.888;2022-10-17T08:14:10;17.14;80.15
75368;DHT22;63954;51.948;5.888;2022-10-17T08:17:16;17.04;80.91
75368;DHT22;63954;51.948;5.888;2022-10-17T08:23:42;16.96;81.23
75368;DHT22;63954;51.948;5.888;2022-10-17T08:26:34;16.92;81.92
75368;DHT22;63954;51.948;5.888;2022-10-17T08:29:17;16.86;82.36
75368;DHT22;63954;51.948;5.888;2022-10-17T08:31:53;16.80;82.54
75368;DHT22;63954;51.948;5.888;2022-10-17T08:34:27;16.75;82.97
75368;DHT22;63954;51.948;5.888;2022-10-17T08:36:55;16.74;82.94
75368;DHT22;63954;51.948;5.888;2022-10-17T08:39:39;16.73;83.77
75368;DHT22;63954;51.948;5.888;2022-10-17T08:42:30;16.72;83.58
75368;DHT22;63954;51.948;5.888;2022-10-17T08:45:10;16.73;83.63
75368;DHT22;63954;51.948;5.888;2022-10-17T08:47:47;16.76;83.89
75368;DHT22;63954;51.948;5.888;2022-10-17T08:50:24;16.77;83.97
75368;DHT22;63954;51.948;5.888;2022-10-17T08:52:57;16.75;84.11
75368;DHT22;63954;51.948;5.888;2022-10-17T08:55:32;16.73;84.77
75368;DHT22;63954;51.948;5.888;2022-10-17T08:58:12;16.76;84.49
75368;DHT22;63954;51.948;5.888;2022-10-17T09:00:49;16.77;84.76
75368;DHT22;63954;51.948;5.888;2022-10-17T09:03:27;16.76;84.90
75368;DHT22;63954;51.948;5.888;2022-10-17T09:06:10;16.80;84.61
75368;DHT22;63954;51.948;5.888;2022-10-17T09:08:45;16.80;84.70
75368;DHT22;63954;51.948;5.888;2022-10-17T09:11:26;16.85;84.48
75368;DHT22;63954;51.948;5.888;2022-10-17T09:14:00;16.85;85.20
75368;DHT22;63954;51.948;5.888;2022-10-17T09:16:49;16.89;84.38
75368;DHT22;63954;51.948;5.888;2022-10-17T09:19:24;16.88;84.40
75368;DHT22;63954;51.948;5.888;2022-10-17T09:21:58;16.90;84.53
75368;DHT22;63954;51.948;5.888;2022-10-17T09:24:37;16.93;84.39
75368;DHT22;63954;51.948;5.888;2022-10-17T09:27:20;16.94;84.61
75368;DHT22;63954;51.948;5.888;2022-10-17T09:29:54;16.98;84.79
75368;DHT22;63954;51.948;5.888;2022-10-17T09:32:26;16.96;84.78
75368;DHT22;63954;51.948;5.888;2022-10-17T09:34:53;16.96;84.64
75368;DHT22;63954;51.948;5.888;2022-10-17T09:37:28;16.96;84.61
75368;DHT22;63954;51.948;5.888;2022-10-17T09:39:56;16.94;85.10
75368;DHT22;63954;51.948;5.888;2022-10-17T09:42:25;16.95;84.64
75368;DHT22;63954;51.948;5.888;2022-10-17T09:45:04;16.95;84.94
75368;DHT22;63954;51.948;5.888;2022-10-17T09:47:42;16.93;84.96
75368;DHT22;63954;51.948;5.888;2022-10-17T09:50:15;16.94;85.01
75368;DHT22;63954;51.948;5.888;2022-10-17T09:52:45;16.95;85.00
75368;DHT22;63954;51.948;5.888;2022-10-17T09:55:17;16.98;84.97
75368;DHT22;63954;51.948;5.888;2022-10-17T09:57:54;17.00;85.28
75368;DHT22;63954;51.948;5.888;2022-10-17T10:00:24;17.02;85.58
75368;DHT22;63954;51.948;5.888;2022-10-17T10:03:08;17.04;85.99
75368;DHT22;63954;51.948;5.888;2022-10-17T10:05:38;17.08;86.17
75368;DHT22;63954;51.948;5.888;2022-10-17T10:08:13;17.16;86.35
75368;DHT22;63954;51.948;5.888;2022-10-17T10:10:41;17.21;86.51
75368;DHT22;63954;51.948;5.888;2022-10-17T10:13:17;17.25;86.48
75368;DHT22;63954;51.948;5.888;2022-10-17T10:15:48;17.31;86.59
75368;DHT22;63954;51.948;5.888;2022-10-17T10:18:31;17.31;86.67
75368;DHT22;63954;51.948;5.888;2022-10-17T10:21:05;17.29;86.55
75368;DHT22;63954;51.948;5.888;2022-10-17T10:23:34;17.24;87.03
75368;DHT22;63954;51.948;5.888;2022-10-17T10:26:17;17.23;87.13
75368;DHT22;63954;51.948;5.888;2022-10-17T10:28:51;17.23;87.71
75368;DHT22;63954;51.948;5.888;2022-10-17T10:31:28;17.26;88.56
75368;DHT22;63954;51.948;5.888;2022-10-17T10:33:58;17.30;89.28
75368;DHT22;63954;51.948;5.888;2022-10-17T10:36:41;17.32;89.47
75368;DHT22;63954;51.948;5.888;2022-10-17T10:39:27;17.35;89.51
75368;DHT22;63954;51.948;5.888;2022-10-17T10:41:57;17.36;90.12
75368;DHT22;63954;51.948;5.888;2022-10-17T10:44:26;17.41;90.64
75368;DHT22;63954;51.948;5.888;2022-10-17T10:47:17;17.50;90.19
75368;DHT22;63954;51.948;5.888;2022-10-17T10:49:46;17.56;90.55
75368;DHT22;63954;51.948;5.888;2022-10-17T10:52:23;17.61;90.47
75368;DHT22;63954;51.948;5.888;2022-10-17T10:55:02;17.68;90.58
75368;DHT22;63954;51.948;5.888;2022-10-17T10:57:32;17.76;90.69
75368;DHT22;63954;51.948;5.888;2022-10-17T11:00:11;17.81;89.36
75368;DHT22;63954;51.948;5.888;2022-10-17T11:03:03;17.85;89.68
75368;DHT22;63954;51.948;5.888;2022-10-17T11:05:40;17.88;90.54
75368;DHT22;63954;51.948;5.888;2022-10-17T11:08:23;17.88;89.57
75368;DHT22;63954;51.948;5.888;2022-10-17T11:13:56;17.83;90.58
75368;DHT22;63954;51.948;5.888;2022-10-17T11:16:33;17.82;90.60
75368;DHT22;63954;51.948;5.888;2022-10-17T11:19:12;17.82;90.63
75368;DHT22;63954;51.948;5.888;2022-10-17T11:21:46;17.81;90.82
75368;DHT22;63954;51.948;5.888;2022-10-17T11:24:22;17.84;90.63
75368;DHT22;63954;51.948;5.888;2022-10-17T11:26:54;17.88;90.76
75368;DHT22;63954;51.948;5.888;2022-10-17T11:29:27;17.92;90.83
75368;DHT22;63954;51.948;5.888;2022-10-17T11:31:59;17.93;90.96
75368;DHT22;63954;51.948;5.888;2022-10-17T11:34:31;17.94;90.52
75368;DHT22;63954;51.948;5.888;2022-10-17T11:37:04;17.95;90.83
75368;DHT22;63954;51.948;5.888;2022-10-17T11:39:38;18.03;90.03
75368;DHT22;63954;51.948;5.888;2022-10-17T11:42:14;18.07;90.44
75368;DHT22;63954;51.948;5.888;2022-10-17T11:44:59;18.11;89.90
75368;DHT22;63954;51.948;5.888;2022-10-17T11:47:45;18.18;89.66
75368;DHT22;63954;51.948;5.888;2022-10-17T11:50:23;18.23;89.67
75368;DHT22;63954;51.948;5.888;2022-10-17T11:52:57;18.28;90.40
75368;DHT22;63954;51.948;5.888;2022-10-17T11:55:27;18.29;90.05
75368;DHT22;63954;51.948;5.888;2022-10-17T11:58:21;18.27;89.58
75368;DHT22;63954;51.948;5.888;2022-10-17T12:00:55;18.27;90.19
75368;DHT22;63954;51.948;5.888;2022-10-17T12:03:35;18.25;89.85
75368;DHT22;63954;51.948;5.888;2022-10-17T12:06:16;18.22;87.72
75368;DHT22;63954;51.948;5.888;2022-10-17T12:08:52;18.18;90.15
75368;DHT22;63954;51.948;5.888;2022-10-17T12:11:33;18.14;90.02
75368;DHT22;63954;51.948;5.888;2022-10-17T12:14:34;18.12;88.51
75368;DHT22;63954;51.948;5.888;2022-10-17T12:17:03;18.12;90.77
75368;DHT22;63954;51.948;5.888;2022-10-17T12:19:33;18.13;90.61
75368;DHT22;63954;51.948;5.888;2022-10-17T12:22:21;18.14;90.02
75368;DHT22;63954;51.948;5.888;2022-10-17T12:24:57;18.12;90.65
75368;DHT22;63954;51.948;5.888;2022-10-17T12:27:36;18.14;90.41
75368;DHT22;63954;51.948;5.888;2022-10-17T12:30:23;18.13;89.29
75368;DHT22;63954;51.948;5.888;2022-10-17T12:32:52;18.15;90.01
75368;DHT22;63954;51.948;5.888;2022-10-17T12:35:21;18.15;90.79
75368;DHT22;63954;51.948;5.888;2022-10-17T12:40:59;18.15;90.79
75368;DHT22;63954;51.948;5.888;2022-10-17T12:46:45;18.12;89.79
75368;DHT22;63954;51.948;5.888;2022-10-17T12:49:20;18.11;89.92
75368;DHT22;63954;51.948;5.888;2022-10-17T12:54:53;18.15;90.97
75368;DHT22;63954;51.948;5.888;2022-10-17T12:57:29;18.18;90.01
75368;DHT22;63954;51.948;5.888;2022-10-17T12:59:57;18.19;90.79
75368;DHT22;63954;51.948;5.888;2022-10-17T13:02:28;18.23;89.83
75368;DHT22;63954;51.948;5.888;2022-10-17T13:05:04;18.32;90.41
75368;DHT22;63954;51.948;5.888;2022-10-17T13:07:36;18.39;90.39
75368;DHT22;63954;51.948;5.888;2022-10-17T13:10:18;18.43;90.06
75368;DHT22;63954;51.948;5.888;2022-10-17T13:12:47;18.44;90.40
75368;DHT22;63954;51.948;5.888;2022-10-17T13:15:17;18.42;90.56
75368;DHT22;63954;51.948;5.888;2022-10-17T13:17:54;18.38;89.57
75368;DHT22;63954;51.948;5.888;2022-10-17T13:20:25;18.37;90.24
75368;DHT22;63954;51.948;5.888;2022-10-17T13:23:02;18.36;89.84
75368;DHT22;63954;51.948;5.888;2022-10-17T13:25:32;18.39;90.28
75368;DHT22;63954;51.948;5.888;2022-10-17T13:28:09;18.43;90.13
75368;DHT22;63954;51.948;5.888;2022-10-17T13:30:37;18.49;90.39
75368;DHT22;63954;51.948;5.888;2022-10-17T13:33:27;18.53;89.00
75368;DHT22;63954;51.948;5.888;2022-10-17T13:38:31;18.52;90.13
75368;DHT22;63954;51.948;5.888;2022-10-17T13:41:08;18.52;89.91
75368;DHT22;63954;51.948;5.888;2022-10-17T13:43:53;18.53;90.15
75368;DHT22;63954;51.948;5.888;2022-10-17T13:46:28;18.53;89.97
75368;DHT22;63954;51.948;5.888;2022-10-17T13:52:41;18.59;88.96
75368;DHT22;63954;51.948;5.888;2022-10-17T13:56:03;18.55;89.42
75368;DHT22;63954;51.948;5.888;2022-10-17T13:58:56;18.55;88.51
75368;DHT22;63954;51.948;5.888;2022-10-17T14:01:33;18.58;89.73
75368;DHT22;63954;51.948;5.888;2022-10-17T14:04:11;18.61;90.21
75368;DHT22;63954;51.948;5.888;2022-10-17T14:06:51;18.58;89.03
75368;DHT22;63954;51.948;5.888;2022-10-17T14:09:50;18.59;88.64
75368;DHT22;63954;51.948;5.888;2022-10-17T14:12:43;18.64;87.99
75368;DHT22;63954;51.948;5.888;2022-10-17T14:15:13;18.65;88.66
75368;DHT22;63954;51.948;5.888;2022-10-17T14:17:41;18.68;89.91
75368;DHT22;63954;51.948;5.888;2022-10-17T14:20:36;18.66;88.89
75368;DHT22;63954;51.948;5.888;2022-10-17T14:23:43;18.67;89.51
75368;DHT22;63954;51.948;5.888;2022-10-17T14:30:30;18.59;88.31
75368;DHT22;63954;51.948;5.888;2022-10-17T14:33:55;18.59;90.10
75368;DHT22;63954;51.948;5.888;2022-10-17T14:46:15;18.48;89.70
75368;DHT22;63954;51.948;5.888;2022-10-17T16:58:39;17.15;90.12
75368;DHT22;63954;51.948;5.888;2022-10-17T17:04:08;17.28;90.08
75368;DHT22;63954;51.948;5.888;2022-10-17T17:13:08;17.40;89.73
75368;DHT22;63954;51.948;5.888;2022-10-17T17:15:43;17.44;89.54
75368;DHT22;63954;51.948;5.888;2022-10-17T17:18:28;17.46;89.66
75368;DHT22;63954;51.948;5.888;2022-10-17T17:21:03;17.43;89.38
75368;DHT22;63954;51.948;5.888;2022-10-17T17:23:32;17.38;89.32
75368;DHT22;63954;51.948;5.888;2022-10-17T17:26:02;17.32;89.07
75368;DHT22;63954;51.948;5.888;2022-10-17T17:28:31;17.24;89.14
75368;DHT22;63954;51.948;5.888;2022-10-17T17:31:01;17.20;89.16
75368;DHT22;63954;51.948;5.888;2022-10-17T17:33:33;17.13;88.82
75368;DHT22;63954;51.948;5.888;2022-10-17T17:36:03;17.10;89.27
75368;DHT22;63954;51.948;5.888;2022-10-17T17:38:32;17.08;89.31
75368;DHT22;63954;51.948;5.888;2022-10-17T17:41:00;17.06;89.41
75368;DHT22;63954;51.948;5.888;2022-10-17T17:43:28;17.05;89.33
75368;DHT22;63954;51.948;5.888;2022-10-17T17:45:55;17.04;89.41
75368;DHT22;63954;51.948;5.888;2022-10-17T17:48:27;17.03;89.28
75368;DHT22;63954;51.948;5.888;2022-10-17T17:51:02;17.02;89.27
75368;DHT22;63954;51.948;5.888;2022-10-17T17:53:33;17.02;89.36
75368;DHT22;63954;51.948;5.888;2022-10-17T17:56:09;17.01;88.86
75368;DHT22;63954;51.948;5.888;2022-10-17T17:58:41;17.00;89.25
75368;DHT22;63954;51.948;5.888;2022-10-17T18:01:13;16.99;89.36
75368;DHT22;63954;51.948;5.888;2022-10-17T18:03:49;16.98;89.18
75368;DHT22;63954;51.948;5.888;2022-10-17T18:06:21;16.96;89.21
75368;DHT22;63954;51.948;5.888;2022-10-17T18:08:53;16.95;89.23
75368;DHT22;63954;51.948;5.888;2022-10-17T18:11:35;16.93;89.14
75368;DHT22;63954;51.948;5.888;2022-10-17T18:14:09;16.91;89.12
75368;DHT22;63954;51.948;5.888;2022-10-17T18:16:37;16.91;89.09
75368;DHT22;63954;51.948;5.888;2022-10-17T18:19:12;16.89;88.82
75368;DHT22;63954;51.948;5.888;2022-10-17T18:21:39;16.89;89.23
75368;DHT22;63954;51.948;5.888;2022-10-17T18:24:06;16.89;89.29
75368;DHT22;63954;51.948;5.888;2022-10-17T18:26:34;16.91;89.26
75368;DHT22;63954;51.948;5.888;2022-10-17T18:29:07;16.93;89.32
75368;DHT22;63954;51.948;5.888;2022-10-17T18:31:39;16.95;89.41
75368;DHT22;63954;51.948;5.888;2022-10-17T18:34:31;17.01;88.68
75368;DHT22;63954;51.948;5.888;2022-10-17T18:36:59;17.05;89.45
75368;DHT22;63954;51.948;5.888;2022-10-17T18:39:27;17.06;89.31
75368;DHT22;63954;51.948;5.888;2022-10-17T18:41:56;17.10;89.44
75368;DHT22;63954;51.948;5.888;2022-10-17T18:44:25;17.14;89.36
75368;DHT22;63954;51.948;5.888;2022-10-17T18:46:55;17.15;89.36
75368;DHT22;63954;51.948;5.888;2022-10-17T18:49:27;17.14;89.20
75368;DHT22;63954;51.948;5.888;2022-10-17T18:51:54;17.16;89.15
75368;DHT22;63954;51.948;5.888;2022-10-17T18:54:21;17.14;88.84
75368;DHT22;63954;51.948;5.888;2022-10-17T18:56:51;17.10;88.94
75368;DHT22;63954;51.948;5.888;2022-10-17T18:59:24;17.10;88.90
75368;DHT22;63954;51.948;5.888;2022-10-17T19:01:56;17.07;88.80
75368;DHT22;63954;51.948;5.888;2022-10-17T19:04:27;17.04;88.91
75368;DHT22;63954;51.948;5.888;2022-10-17T19:06:55;17.03;88.88
75368;DHT22;63954;51.948;5.888;2022-10-17T19:09:22;16.99;88.80
75368;DHT22;63954;51.948;5.888;2022-10-17T19:11:49;16.99;88.83
75368;DHT22;63954;51.948;5.888;2022-10-17T19:14:20;16.96;88.87
75368;DHT22;63954;51.948;5.888;2022-10-17T19:16:48;16.93;88.83
75368;DHT22;63954;51.948;5.888;2022-10-17T19:19:19;16.93;88.84